Harvard, Illinois
Current Conditions -  °F | °C
As of 6:55 AM on Tuesday 21 Oct 2014 (Local Time) from KBUU Reporting Station
Clear Clear  
Wind Chill: 38°   Ceiling: Unl
Heat Index: 41°   Visibility: 10mi
Dew Point: 36°   Wind: 5mph
Humidity: 81%   Direction: 360°N
Pressure: 30.12"   Gusts: NA
Location:  42.42°N, 88.62°W
Report Text: KBUU 211155Z AUTO 36004KT 10SM CLR 05/02 A3012 RMK AO2 T00500020 10087 20050
Loading
Personal Weather Stations






























Interactive Weather Map
Tropical Storm Tracking
New forecast layout! Learn more

10-Day Weather Forecast

Advertisements
Track Severe Weather on mobile